x

Saginaw Bay Light #1, Mi (sblm4) Weather Station

9:50pm - Thu 5th Mar 2015 All times are CST. -6 hours from GMT.

  • Wind
    16mph
  • Air Temp 8°f
  • Sea Pressure 1031.2mb
  • Saginaw Bay Light #1, Mi
  • Saginaw Bay Light #1, Mi

More Historic Weather Station data

Upgrade to MSW Pro to gain access to the past 30 days of data for over 8000 Wavebouys and Weather Stations around the globe.

Join Pro

Comparision Forecast

View Surf forecast
   
Thu 03/05 9:50pm 16
mph
1031.2mb 8f
9:40pm 16 17 mph 1031.2mb 9f
9:30pm 17
mph
1030.8mb 11f
9:20pm 16 17 mph 1030.8mb 10f
9:10pm 14 17 mph 1031.2mb 6f
9:00pm 16 17 mph 1030.8mb 9f
8:50pm 17 18 mph 1030.8mb 11f
8:40pm 17
mph
1030.8mb 7f
8:30pm 13 15 mph 1030.5mb 8f
8:20pm 14 15 mph 1030.5mb 12f
8:10pm 15 16 mph 1030.1mb 12f
8:00pm 15 16 mph 1030.1mb 13f
7:50pm 15 16 mph 1030.5mb 11f
7:40pm 15
mph
1030.5mb 11f
7:30pm 13 15 mph 1030.1mb 10f
7:20pm 15 16 mph 1030.1mb 14f
7:10pm 15
mph
1030.1mb 14f
7:00pm 15 16 mph 1030.1mb 14f
6:50pm 16
mph
1029.8mb 14f
6:40pm 16
mph
1030.1mb 14f
6:30pm 16
mph
1029.8mb 13f
6:20pm 16 17 mph 1029.8mb 13f
6:10pm 16 17 mph 1029.8mb 13f
6:00pm 16 17 mph 1029.8mb 12f
5:50pm 13 14 mph 1029.5mb 10f
5:40pm 14 15 mph 1029.5mb 13f
5:30pm 15 16 mph 1029.1mb 12f
5:20pm 15 16 mph 1029.1mb 13f
5:10pm 16
mph
1028.8mb 14f
5:00pm 15
mph
1028.8mb 13f
4:50pm 15 16 mph 1028.8mb 13f
4:40pm 15 16 mph 1028.8mb 14f
4:30pm 14 15 mph 1028.8mb 14f
4:20pm 14 15 mph 1028.8mb 14f
4:10pm 14 15 mph 1028.8mb 14f
4:00pm 14 16 mph 1028.4mb 14f
3:50pm 14 16 mph 1028.4mb 15f
3:40pm 13 14 mph 1028.4mb 15f
3:30pm 11
mph
1028.4mb 15f
3:20pm 10 13 mph 1028.4mb 15f
3:10pm 10 11 mph 1028.4mb 15f
3:00pm 11 14 mph 1028.4mb 14f
2:50pm 10 14 mph 1028.4mb 15f
2:40pm 13 14 mph 1028.4mb 16f
2:30pm 13 14 mph 1028.4mb 15f
2:20pm 13 14 mph 1028.4mb 16f
2:10pm 10 13 mph 1028.4mb 16f
2:00pm 13 14 mph 1028.4mb 15f
1:50pm 11 14 mph 1028.4mb 15f
1:40pm 10 11 mph 1028.4mb 16f
1:30pm 9 11 mph 1028.4mb 15f
1:20pm 7 10 mph 1028.4mb 15f
1:10pm 9 11 mph 1028.8mb 15f
1:00pm 7 10 mph 1028.8mb 10f
12:50pm 7 9 mph 1028.8mb 11f
12:40pm 8 9 mph 1028.8mb 11f
12:30pm 7 9 mph 1029.1mb 11f
12:20pm 6 8 mph 1029.1mb 10f
12:10pm 6 8 mph 1029.1mb 10f
12:00pm 8 9 mph 1029.1mb 9f
11:50am 8 13 mph 1029.1mb 9f
11:40am 8 10 mph 1029.1mb 9f
11:30am 7 9 mph 1029.5mb 8f
11:20am 7 9 mph 1029.1mb 8f
11:10am 7 10 mph 1029.1mb 8f
11:00am 9 13 mph 1029.1mb 7f
10:50am 9 10 mph 1029.1mb 7f
10:40am 9 11 mph 1029.1mb 7f
10:30am 8 11 mph 1029.1mb 7f
10:20am 8 9 mph 1029.5mb 6f
10:10am 8 11 mph 1029.5mb 6f
10:00am 10 11 mph 1029.5mb 5f
9:50am 10 11 mph 1029.5mb 5f
9:40am 9 11 mph 1029.5mb 5f
9:30am 10 11 mph 1029.8mb 4f
9:20am 10 11 mph 1029.5mb 4f
9:10am 10 13 mph 1029.5mb 3f
9:00am 11 13 mph 1029.5mb 3f
8:50am 10 11 mph 1029.5mb 2f
8:40am 11
mph
1028.8mb 2f
8:30am 10 11 mph 1029.1mb 1f
8:20am 10 11 mph 1029.1mb 1f
8:10am 10 11 mph 1028.8mb 1f
8:00am 9 10 mph 1028.4mb -
7:50am 9 10 mph 1028.4mb -
7:40am 9
mph
1028.4mb -
7:30am 8 9 mph 1028.4mb -1f
7:20am 9 10 mph 1028.4mb -
7:10am 10
mph
1028.4mb -
7:00am 10 11 mph 1028.8mb -1f
6:50am 11
mph
1028.4mb -
6:40am 10 11 mph 1027.8mb -
6:30am 10 11 mph 1027.4mb 1f
6:20am 9 10 mph 1027.4mb 1f
6:10am 8 9 mph 1027.4mb 1f
6:00am 9
mph
1027.8mb 1f
5:50am 8 9 mph 1027.4mb 1f
5:40am 8 9 mph 1027.4mb 2f
5:30am 9
mph
1027.4mb 2f
5:20am 9
mph
1027.4mb 2f
5:10am 9
mph
1027.4mb 2f
5:00am 9 10 mph 1027.1mb 1f
4:50am 9 10 mph 1027.1mb 1f
4:40am 9 10 mph 1026.8mb 1f
4:30am 9
mph
1026.4mb 1f
4:20am 9
mph
1026.4mb 1f
4:10am 8 9 mph 1026.4mb 1f
4:00am 9 10 mph 1026.4mb 1f
3:50am 9 10 mph 1026.4mb 1f
3:40am 9
mph
1026.8mb -
3:30am 8
mph
1026.4mb -
3:20am 8 9 mph 1026.4mb -
3:10am 9
mph
1026.1mb -
3:00am 9 10 mph 1025.7mb -
2:50am 10
mph
1025.4mb 2f
2:40am 9 10 mph 1025.1mb 3f
2:30am 10 11 mph 1025.7mb 3f
2:20am 11 13 mph 1025.4mb 4f
2:10am 11 14 mph 1025.7mb 4f
2:00am 14
mph
1026.1mb 3f
1:50am 14
mph
1025.7mb 4f
1:40am 13 14 mph 1025.7mb 5f
1:30am 14 16 mph 1025.7mb 5f
1:20am 16
mph
1025.7mb 4f
1:10am 14 15 mph 1025.7mb 4f
1:00am 13 14 mph 1026.1mb 3f
12:50am 14
mph
1026.1mb 3f
12:40am 11
mph
1026.1mb 3f
12:30am 11 13 mph 1026.1mb 4f
12:20am 14
mph
1025.7mb 4f
12:10am 14 15 mph 1025.4mb 4f
12:00am 13 14 mph 1025.4mb 4f
Wed 03/04 11:50pm 11 14 mph 1025.1mb 5f
11:40pm 14
mph
1025.1mb 5f
11:30pm 13
mph
1025.1mb 5f
11:20pm 13 16 mph 1025.1mb 5f
11:10pm 14 16 mph 1025.1mb 6f
11:00pm 15 18 mph 1024mb 7f
10:50pm 17 18 mph 1023mb 8f
10:40pm 14 16 mph 1023.4mb 8f
10:30pm 16
mph
1023.7mb 9f
10:20pm 16 17 mph 1023.7mb 10f
10:10pm 17
mph
1024mb 11f
10:00pm 16 17 mph 1023.7mb 10f
9:50pm 17
mph
1023.4mb 10f
9:40pm 16
mph
1023.7mb 10f
9:30pm 14 15 mph 1023.7mb 9f
9:20pm 13 15 mph 1023.7mb 9f
9:10pm 13 15 mph 1023mb 11f
9:00pm 14 16 mph 1022.7mb 10f
8:50pm 15 17 mph 1021.7mb 10f
8:40pm 15 16 mph 1021.3mb 10f
8:30pm 15 18 mph 1021mb 10f
8:20pm 16 17 mph 1020.3mb 10f
8:10pm 14 17 mph 1021mb 10f
8:00pm 16 17 mph 1020.7mb 11f
7:50pm 15 17 mph 1020.7mb 11f
7:40pm 15 20 mph 1021mb 12f
7:30pm 20 23 mph 1020.7mb 13f
7:20pm 21 25 mph 1020.3mb 14f
7:10pm 21 24 mph 1020mb 14f
7:00pm 22 24 mph 1019.3mb 15f
6:50pm 21 24 mph 1019.6mb 15f
6:40pm 22 25 mph 1018.6mb 15f
6:30pm 24 26 mph 1018.3mb 15f
6:20pm 23 29 mph 1017.9mb 16f
6:10pm 25 31 mph 1017.6mb 16f
6:00pm 25 28 mph 1017.3mb 16f
5:50pm 25 29 mph 1016.6mb 17f
5:40pm 24 28 mph 1016.3mb 17f
5:30pm 25 30 mph 1016.3mb 18f
5:20pm 25 29 mph 1015.6mb 19f
5:10pm 26 29 mph 1015.6mb 20f
5:00pm 21 25 mph 1015.6mb 20f
4:50pm 25 26 mph 1015.6mb 21f
4:00pm 16 21 mph 1014.9mb 22f
3:50pm 20 22 mph 1014.2mb 23f
3:00pm 18 22 mph 1013.5mb 25f
2:50pm 17 20 mph 1013.5mb 25f
2:40pm 18 21 mph 1013.9mb 25f
2:30pm 15 20 mph 1013.5mb 25f
2:20pm 15 23 mph 1013.5mb 25f
2:10pm 16 21 mph 1013.5mb 25f
2:00pm 15 20 mph 1013.5mb 25f
1:50pm 13 18 mph 1013.5mb 25f
1:00pm 17 23 mph 1013.2mb 25f
12:50pm 20 22 mph 1013.2mb 25f
12:40pm 16 20 mph 1013.2mb 25f
12:30pm 18 21 mph 1013.2mb 26f
12:20pm 20 22 mph 1013.2mb 26f
12:10pm 20 22 mph 1013.2mb 26f
12:00pm 17 21 mph 1013.5mb 26f
11:50am 16 18 mph 1013.2mb 26f
11:40am 20 22 mph 1012.9mb 26f
11:30am 18 23 mph 1012.9mb 26f
11:20am 18 22 mph 1012.9mb 26f
11:10am 21 24 mph 1012.5mb 26f
11:00am 22 25 mph 1012.9mb 26f
10:50am 22 24 mph 1012.9mb 26f
10:40am 20 23 mph 1012.5mb 25f
10:30am 17 21 mph 1012.5mb 25f
10:20am 13 15 mph 1012.2mb 26f
10:10am 10 11 mph 1012.5mb 25f
10:00am 6 9 mph 1012.9mb 24f
9:50am 7 8 mph 1012.9mb 24f
9:00am 7 8 mph 1013.2mb 22f
8:50am 6
mph
1012.9mb 22f
8:40am 6 8 mph 1012.9mb 22f
8:30am 5 6 mph 1012.9mb 22f
8:20am 5 6 mph 1012.5mb 22f
8:10am 5 6 mph 1012.5mb 22f
8:00am 6 8 mph 1012.2mb 22f
7:50am 8 9 mph 1012.5mb 22f
7:40am 9 13 mph 1012.2mb 22f
7:30am 11 14 mph 1012.2mb 22f
7:20am 11 14 mph 1011.9mb 22f
7:10am 10 13 mph 1011.9mb 22f
7:00am 11 17 mph 1011.9mb 23f
6:50am 9 13 mph 1011.2mb 23f
6:40am 11 13 mph 1011.2mb 24f
6:30am 13 15 mph 1011.2mb 24f
6:20am 13 14 mph 1010.8mb 24f
6:10am 14 15 mph 1010.5mb 24f
6:00am 13 15 mph 1010.5mb 23f
5:50am 14 15 mph 1010.2mb 23f
5:40am 14 16 mph 1010.2mb 23f
5:30am 16 17 mph 1010.2mb 24f
5:20am 15 17 mph 1010.2mb 23f
5:10am 15
mph
1009.8mb 23f
5:00am 15 16 mph 1009.5mb 24f
4:50am 16 17 mph 1009.5mb 24f
4:00am 17 18 mph 1008.5mb 25f
3:50am 17
mph
1008.1mb 25f
3:40am 16 17 mph 1008.1mb 25f
3:30am 16
mph
1008.1mb 25f
3:20am 15 16 mph 1008.1mb 25f
3:10am 16
mph
1008.1mb 25f
3:00am 16
mph
1007.8mb 26f
2:50am 15 16 mph 1007.8mb 25f
2:40am 15 16 mph 1007.8mb 25f
2:30am 15 16 mph 1007.8mb 26f
2:20am 16 17 mph 1007.8mb 26f
2:10am 16 17 mph 1007.8mb 26f
2:00am 16 18 mph 1007.8mb 26f
1:50am 16 18 mph 1007.8mb 26f
1:40am 17 18 mph 1007.8mb 27f
1:30am 16 18 mph 1007.8mb 26f
1:20am 15 16 mph 1007.5mb 26f
1:10am 15 16 mph 1007.5mb 26f
1:00am 14 16 mph 1007.5mb 26f
12:50am 14 16 mph 1007.5mb 26f
12:40am 15 17 mph 1007.1mb 26f
12:30am 16 17 mph 1007.1mb 26f
12:20am 15 16 mph 1006.8mb 26f
12:10am 14 16 mph 1006.8mb 26f
12:00am 15 16 mph 1006.8mb 27f
Tue 03/03 11:50pm 15 17 mph 1006.4mb 27f
11:40pm 17 20 mph 1006.8mb 28f
11:30pm 17 18 mph 1006.8mb 28f
11:20pm 18 23 mph 1006.8mb 28f
11:10pm 17 22 mph 1006.4mb 28f
11:00pm 21 22 mph 1006.4mb 28f
10:50pm 16 23 mph 1006.4mb 28f
10:40pm 21 26 mph 1006.1mb 28f
10:30pm 23 29 mph 1005.4mb 29f
10:20pm 23 29 mph 1005.4mb 29f
10:10pm 22 25 mph 1005.1mb 29f
10:00pm 17 26 mph 1005.1mb 29f
9:50pm 18 22 mph 1005.1mb 29f
9:40pm 22 29 mph 1005.1mb 29f
9:30pm 24 28 mph 1004.7mb 30f
9:20pm 20 25 mph 1004.7mb 30f
9:10pm 22 24 mph 1004.4mb 30f
3:00pm 8 11 mph 1001.4mb 26f
2:50pm 10 11 mph 1001mb 27f
2:40pm 10 13 mph 1001mb 26f
2:30pm 10 11 mph 1001.4mb 26f
2:20pm 9 11 mph 1001.4mb 26f
2:10pm 9 13 mph 1001.7mb 26f
2:00pm 9 13 mph 1002.4mb 26f
1:50pm 10 11 mph 1002mb 26f
1:40pm 11 15 mph 1002mb 25f
1:30pm 14 15 mph 1002.4mb 25f
1:20pm 14 16 mph 1002.7mb 25f
1:10pm 14 17 mph 1002.7mb 25f
1:00pm 15 18 mph 1003mb 25f
12:50pm 16 18 mph 1003.4mb 25f
12:40pm 16 20 mph 1004.1mb 25f
12:30pm 16 18 mph 1004.7mb 24f
12:20pm 14 18 mph 1005.4mb 25f
12:10pm 16 20 mph 1005.8mb 24f
12:00pm 18 20 mph 1006.4mb 24f
11:50am 16 20 mph 1007.1mb 25f
11:40am 17 20 mph 1007.1mb 24f
11:30am 16 21 mph 1008.5mb 24f
11:20am 18 21 mph 1008.8mb 24f
11:10am 17 20 mph 1009.1mb 24f
11:00am 17 22 mph 1009.8mb 24f
10:50am 22 24 mph 1010.2mb 24f
10:40am 17 21 mph 1010.8mb 23f
10:30am 20 23 mph 1010.8mb 23f
10:20am 20 24 mph 1010.2mb 23f
10:10am 21 24 mph 1011.2mb 23f
10:00am 20 22 mph 1011.9mb 23f
9:50am 18 20 mph 1012.5mb 23f
9:40am 20 21 mph 1012.9mb 23f
9:30am 17 21 mph 1013.5mb 23f
9:20am 18 22 mph 1013.9mb 23f
9:10am 21 24 mph 1013.9mb 22f
9:00am 20 24 mph 1014.2mb 22f
8:50am 17 20 mph 1014.9mb 22f
8:40am 18 21 mph 1015.6mb 22f
8:30am 18 20 mph 1015.9mb 22f
8:20am 14 15 mph 1016.6mb 22f
8:10am 13 14 mph 1016.9mb 22f
8:00am 13 18 mph 1016.9mb 22f
7:50am 17 20 mph 1017.3mb 22f
7:40am 18 21 mph 1017.3mb 22f
7:30am 17 20 mph 1017.9mb 22f
7:20am 14 16 mph 1017.9mb 21f
7:10am 15 16 mph 1017.9mb 21f
7:00am 15 16 mph 1017.9mb 21f
6:50am 16 17 mph 1017.9mb 21f
6:40am 15 17 mph 1017.9mb 21f
6:30am 15 16 mph 1018.3mb 21f
6:20am 14 15 mph 1018.6mb 21f
6:10am 14 16 mph 1019mb 21f
6:00am 14 16 mph 1019.3mb 21f
5:50am 15 16 mph 1019.3mb 21f
5:40am 14 16 mph 1019.6mb 21f
5:30am 13 14 mph 1020mb 21f
5:20am 11 13 mph 1020mb 21f
5:10am 11 13 mph 1020.3mb 21f
5:00am 11 14 mph 1020.3mb 20f
4:50am 13 14 mph 1020.7mb 20f
4:40am 11 13 mph 1021mb 20f
4:30am 10 14 mph 1021.3mb 20f
4:20am 13 15 mph 1021.7mb 20f
4:10am 14 15 mph 1021.7mb 21f
4:00am 15
mph
1022mb 21f
3:50am 14 15 mph 1022.4mb 21f
3:40am 13 14 mph 1022.4mb 20f
3:30am 13 14 mph 1022.7mb 20f
3:20am 13
mph
1022.7mb 20f
3:10am 11 14 mph 1022.7mb 20f
3:00am 13 14 mph 1023mb 20f
2:50am 13 14 mph 1023.4mb 20f
2:40am 13 15 mph 1023.4mb 20f
2:30am 14
mph
1023.4mb 20f
2:20am 11
mph
1023.4mb 20f
2:10am 10 11 mph 1023.7mb 19f
2:00am 11
mph
1023.7mb 20f
1:50am 11 13 mph 1024mb 20f
1:40am 11 13 mph 1024.4mb 20f
1:30am 11 13 mph 1024.7mb 19f
1:20am 10 13 mph 1024.7mb 19f
1:10am 11 13 mph 1024.7mb 19f
1:00am 13 14 mph 1025.1mb 20f
12:50am 13 14 mph 1025.4mb 19f
12:40am 10 14 mph 1025.4mb 19f
12:30am 14 15 mph 1025.4mb 19f
12:20am 13 14 mph 1025.4mb 19f
12:10am 13 15 mph 1025.4mb 19f
12:00am 14 15 mph 1025.4mb 18f
Mon 03/02 11:50pm 14 15 mph 1025.4mb 18f
11:40pm 15 16 mph 1025.4mb 18f
11:30pm 13
mph
1025.4mb 17f
11:20pm 13 14 mph 1025.4mb 17f
11:10pm 13 14 mph 1025.4mb 18f
11:00pm 14
mph
1025.4mb 16f
10:50pm 13 14 mph 1025.4mb 16f
10:40pm 13 14 mph 1025.4mb 17f
10:30pm 11 14 mph 1025.7mb 16f
10:20pm 13
mph
1025.7mb 19f
10:10pm 13 14 mph 1026.1mb 19f
10:00pm 14 15 mph 1026.4mb 18f
9:50pm 14
mph
1026.4mb 18f
9:40pm 14
mph
1026.8mb 20f
9:30pm 14 16 mph 1026.8mb 20f
9:20pm 13 14 mph 1027.1mb 20f
9:10pm 13
mph
1027.1mb 21f
9:00pm 13 15 mph 1027.1mb 20f
8:50pm 10 14 mph 1027.1mb 22f
8:40pm 11 13 mph 1027.1mb 22f
8:30pm 11 13 mph 1027.4mb 23f
8:20pm 13
mph
1027.4mb 23f
8:10pm 11 16 mph 1027.1mb 23f
8:00pm 11 13 mph 1027.4mb 24f
7:50pm 11 14 mph 1027.1mb 24f
7:40pm 10 11 mph 1027.4mb 24f
7:30pm 10 11 mph 1027.4mb 24f
7:20pm 11 13 mph 1027.4mb 22f
7:10pm 11
mph
1027.8mb 25f
7:00pm 11 13 mph 1027.8mb 25f
6:50pm 13
mph
1027.8mb 25f
6:40pm 11
mph
1028.1mb 26f
6:30pm 10 11 mph 1028.1mb 26f
6:20pm 10 11 mph 1028.1mb 26f
6:10pm 10 11 mph 1028.1mb 25f
6:00pm 8 9 mph 1028.4mb 24f
5:50pm 8 11 mph 1028.4mb 24f
5:40pm 10
mph
1028.4mb 26f
5:30pm 8 10 mph 1028.4mb 24f
5:20pm 10
mph
1028.4mb 26f
5:10pm 9 10 mph 1028.1mb 25f
5:00pm 10 11 mph 1028.1mb 26f
4:50pm 9 10 mph 1028.4mb 26f
4:40pm 10
mph
1028.4mb 27f
4:30pm 10 11 mph 1028.4mb 28f
4:20pm 10 11 mph 1028.8mb 27f
4:10pm 10 11 mph 1028.8mb 27f
4:00pm 8 9 mph 1028.8mb 26f
3:50pm 8 9 mph 1028.8mb 27f
3:40pm 8 9 mph 1028.8mb 27f
3:30pm 9
mph
1028.8mb 27f
3:20pm 7 9 mph 1028.8mb 27f
3:10pm 9
mph
1028.8mb 27f
3:00pm 8 11 mph 1029.1mb 27f
2:50pm 9 10 mph 1029.1mb 27f
2:40pm 9 10 mph 1029.1mb 26f
2:30pm 9 11 mph 1029.1mb 26f
2:20pm 9 10 mph 1029.1mb 26f
2:10pm 9 10 mph 1029.1mb 26f
2:00pm 9 10 mph 1029.1mb 26f
1:50pm 9 10 mph 1029.1mb 26f
1:40pm 8 9 mph 1029.1mb 26f
1:30pm 7 11 mph 1029.1mb 26f
1:20pm 10 11 mph 1029.1mb 26f
1:10pm 9 10 mph 1029.1mb 26f
1:00pm 9 11 mph 1028.8mb 25f
12:50pm 9 11 mph 1029.1mb 25f
12:40pm 10 13 mph 1029.5mb 25f
12:30pm 10 15 mph 1029.5mb 24f
12:20pm 15 17 mph 1029.5mb 24f
12:10pm 14 16 mph 1029.5mb 24f
12:00pm 9 15 mph 1029.8mb 24f
11:50am 13 15 mph 1029.5mb 24f
11:40am 13 16 mph 1029.8mb 23f
11:30am 15 18 mph 1029.8mb 23f
11:20am 16 18 mph 1029.8mb 23f
11:10am 15 20 mph 1029.5mb 23f
11:00am 16 18 mph 1029.5mb 22f
10:50am 16 17 mph 1029.5mb 22f
10:40am 13 17 mph 1029.1mb 22f
10:30am 14 15 mph 1029.1mb 22f
10:20am 13 14 mph 1029.1mb 22f
10:10am 11 14 mph 1028.8mb 22f
10:00am 11 15 mph 1028.8mb 21f
9:50am 14 16 mph 1028.4mb 21f
9:40am 13 15 mph 1028.8mb 20f
9:30am 13 14 mph 1028.4mb 20f
9:20am 13 15 mph 1028.4mb 20f
9:10am 11 13 mph 1028.4mb 19f
9:00am 8 11 mph 1028.4mb 18f
8:50am 10 11 mph 1028.4mb 18f
8:40am 11 14 mph 1028.8mb 17f
8:30am 14 15 mph 1028.4mb 17f
8:20am 14 15 mph 1028.4mb 16f
8:10am 14 16 mph 1028.1mb 16f
8:00am 15 16 mph 1028.1mb 15f
7:50am 15 16 mph 1027.8mb 15f
7:40am 15 16 mph 1027.4mb 15f
7:30am 15 18 mph 1027.4mb 14f
7:20am 18 20 mph 1027.1mb 14f
7:10am 18 20 mph 1026.8mb 14f
7:00am 17 18 mph 1026.8mb 14f
6:50am 17 18 mph 1026.4mb 14f
6:40am 17 18 mph 1026.1mb 14f
6:30am 17
mph
1026.1mb 13f
6:20am 16 17 mph 1025.7mb 14f
6:10am 16 17 mph 1025.4mb 15f
6:00am 16 17 mph 1025.4mb 15f
5:50am 16 17 mph 1025.4mb 15f
5:40am 16
mph
1025.1mb 15f
5:30am 15 16 mph 1025.1mb 16f
5:20am 16
mph
1025.1mb 16f
5:10am 15 16 mph 1024.7mb 16f
5:00am 15 16 mph 1024.7mb 15f